sensor_id;sensor_type;location;lat;lon;timestamp;pressure;altitude;pressure_sealevel;temperature;humidity
67345;BME280;54230;52.402;6.276;2024-01-30T00:00:00;102630.0;;;10.0;76.1
67345;BME280;54230;52.402;6.276;2024-01-30T00:05:00;102630.0;;;10.0;76.4
67345;BME280;54230;52.402;6.276;2024-01-30T00:10:00;102630.0;;;9.9;76.3
67345;BME280;54230;52.402;6.276;2024-01-30T00:15:00;102630.0;;;9.9;76.2
67345;BME280;54230;52.402;6.276;2024-01-30T00:20:00;102630.0;;;9.9;76.2
67345;BME280;54230;52.402;6.276;2024-01-30T00:25:00;102630.0;;;9.8;76.4
67345;BME280;54230;52.402;6.276;2024-01-30T00:30:00;102640.00000000001;;;9.8;75.8
67345;BME280;54230;52.402;6.276;2024-01-30T00:35:00;102640.00000000001;;;9.8;76.1
67345;BME280;54230;52.402;6.276;2024-01-30T00:40:00;102630.0;;;9.8;76.5
67345;BME280;54230;52.402;6.276;2024-01-30T00:45:00;102630.0;;;9.8;76.4
67345;BME280;54230;52.402;6.276;2024-01-30T00:50:00;102630.0;;;9.8;76.4
67345;BME280;54230;52.402;6.276;2024-01-30T00:55:00;102630.0;;;9.8;76.6
67345;BME280;54230;52.402;6.276;2024-01-30T01:00:00;102630.0;;;9.7;76.8
67345;BME280;54230;52.402;6.276;2024-01-30T01:05:00;102630.0;;;9.7;76.9
67345;BME280;54230;52.402;6.276;2024-01-30T01:10:00;102620.0;;;9.7;76.7
67345;BME280;54230;52.402;6.276;2024-01-30T01:15:00;102620.0;;;9.7;76.8
67345;BME280;54230;52.402;6.276;2024-01-30T01:20:00;102620.0;;;9.6;76.9
67345;BME280;54230;52.402;6.276;2024-01-30T01:25:00;102620.0;;;9.6;77.1
67345;BME280;54230;52.402;6.276;2024-01-30T01:30:00;102620.0;;;9.6;77.1
67345;BME280;54230;52.402;6.276;2024-01-30T01:35:00;102620.0;;;9.6;77.0
67345;BME280;54230;52.402;6.276;2024-01-30T01:40:00;102609.99999999999;;;9.6;77.1
67345;BME280;54230;52.402;6.276;2024-01-30T01:45:00;102609.99999999999;;;9.6;77.6
67345;BME280;54230;52.402;6.276;2024-01-30T01:50:00;102609.99999999999;;;9.7;77.8
67345;BME280;54230;52.402;6.276;2024-01-30T01:55:00;102609.99999999999;;;9.6;77.6
67345;BME280;54230;52.402;6.276;2024-01-30T02:00:00;102600.0;;;9.7;77.7
67345;BME280;54230;52.402;6.276;2024-01-30T02:05:00;102600.0;;;9.7;77.5
67345;BME280;54230;52.402;6.276;2024-01-30T02:10:00;102600.0;;;9.7;77.3
67345;BME280;54230;52.402;6.276;2024-01-30T02:15:00;102590.00000000001;;;9.7;77.5
67345;BME280;54230;52.402;6.276;2024-01-30T02:20:00;102590.00000000001;;;9.6;77.3
67345;BME280;54230;52.402;6.276;2024-01-30T02:25:00;102590.00000000001;;;9.6;77.3
67345;BME280;54230;52.402;6.276;2024-01-30T02:30:00;102580.0;;;9.6;77.0
67345;BME280;54230;52.402;6.276;2024-01-30T02:35:00;102580.0;;;9.5;77.1
67345;BME280;54230;52.402;6.276;2024-01-30T02:40:00;102570.0;;;9.5;77.0
67345;BME280;54230;52.402;6.276;2024-01-30T02:45:00;102570.0;;;9.5;77.1
67345;BME280;54230;52.402;6.276;2024-01-30T02:50:00;102570.0;;;9.5;77.2
67345;BME280;54230;52.402;6.276;2024-01-30T02:55:00;102559.99999999999;;;9.4;77.2
67345;BME280;54230;52.402;6.276;2024-01-30T03:00:00;102559.99999999999;;;9.4;77.1
67345;BME280;54230;52.402;6.276;2024-01-30T03:05:00;102559.99999999999;;;9.3;76.8
67345;BME280;54230;52.402;6.276;2024-01-30T03:10:00;102550.0;;;9.4;77.1
67345;BME280;54230;52.402;6.276;2024-01-30T03:15:00;102550.0;;;9.4;76.9
67345;BME280;54230;52.402;6.276;2024-01-30T03:20:00;102540.00000000001;;;9.4;77.0
67345;BME280;54230;52.402;6.276;2024-01-30T03:25:00;102550.0;;;9.4;76.8
67345;BME280;54230;52.402;6.276;2024-01-30T03:30:00;102540.00000000001;;;9.4;76.7
67345;BME280;54230;52.402;6.276;2024-01-30T03:35:00;102540.00000000001;;;9.6;76.4
67345;BME280;54230;52.402;6.276;2024-01-30T03:40:01;102540.00000000001;;;9.6;76.4
67345;BME280;54230;52.402;6.276;2024-01-30T03:45:00;102530.0;;;9.8;76.1
67345;BME280;54230;52.402;6.276;2024-01-30T03:50:00;102530.0;;;9.7;75.7
67345;BME280;54230;52.402;6.276;2024-01-30T03:55:00;102530.0;;;9.7;75.5
67345;BME280;54230;52.402;6.276;2024-01-30T04:00:00;102509.99999999999;;;9.7;75.7
67345;BME280;54230;52.402;6.276;2024-01-30T04:05:00;102509.99999999999;;;9.8;76.0
67345;BME280;54230;52.402;6.276;2024-01-30T04:10:00;102500.0;;;9.8;75.9
67345;BME280;54230;52.402;6.276;2024-01-30T04:15:00;102500.0;;;9.8;75.7
67345;BME280;54230;52.402;6.276;2024-01-30T04:20:00;102490.00000000001;;;9.9;75.7
67345;BME280;54230;52.402;6.276;2024-01-30T04:25:00;102480.0;;;9.9;75.7
67345;BME280;54230;52.402;6.276;2024-01-30T04:30:00;102480.0;;;9.9;75.4
67345;BME280;54230;52.402;6.276;2024-01-30T04:35:00;102490.00000000001;;;9.8;75.2
67345;BME280;54230;52.402;6.276;2024-01-30T04:40:00;102480.0;;;9.8;75.2
67345;BME280;54230;52.402;6.276;2024-01-30T04:45:00;102480.0;;;9.9;75.4
67345;BME280;54230;52.402;6.276;2024-01-30T04:50:01;102490.00000000001;;;10.0;75.0
67345;BME280;54230;52.402;6.276;2024-01-30T04:55:00;102490.00000000001;;;9.8;75.2
67345;BME280;54230;52.402;6.276;2024-01-30T05:00:00;102490.00000000001;;;9.7;75.3
67345;BME280;54230;52.402;6.276;2024-01-30T05:05:00;102490.00000000001;;;9.6;75.6
67345;BME280;54230;52.402;6.276;2024-01-30T05:10:00;102490.00000000001;;;9.6;75.7
67345;BME280;54230;52.402;6.276;2024-01-30T05:15:00;102490.00000000001;;;9.6;75.7
67345;BME280;54230;52.402;6.276;2024-01-30T05:20:00;102490.00000000001;;;9.6;75.8
67345;BME280;54230;52.402;6.276;2024-01-30T05:25:00;102480.0;;;9.5;75.9
67345;BME280;54230;52.402;6.276;2024-01-30T05:30:00;102470.0;;;9.7;75.6
67345;BME280;54230;52.402;6.276;2024-01-30T05:35:00;102459.99999999999;;;9.8;75.6
67345;BME280;54230;52.402;6.276;2024-01-30T05:40:00;102470.0;;;9.9;75.4
67345;BME280;54230;52.402;6.276;2024-01-30T05:45:00;102470.0;;;9.8;75.6
67345;BME280;54230;52.402;6.276;2024-01-30T05:50:00;102480.0;;;9.9;75.3
67345;BME280;54230;52.402;6.276;2024-01-30T05:55:00;102480.0;;;9.8;75.5
67345;BME280;54230;52.402;6.276;2024-01-30T06:00:00;102490.00000000001;;;9.9;75.4
67345;BME280;54230;52.402;6.276;2024-01-30T06:05:00;102490.00000000001;;;9.9;75.3
67345;BME280;54230;52.402;6.276;2024-01-30T06:10:00;102480.0;;;9.9;75.3
67345;BME280;54230;52.402;6.276;2024-01-30T06:15:00;102470.0;;;10.0;75.2
67345;BME280;54230;52.402;6.276;2024-01-30T06:20:00;102470.0;;;10.1;75.3
67345;BME280;54230;52.402;6.276;2024-01-30T06:25:00;102470.0;;;10.1;75.4
67345;BME280;54230;52.402;6.276;2024-01-30T06:30:00;102459.99999999999;;;10.4;75.7
67345;BME280;54230;52.402;6.276;2024-01-30T06:35:00;102459.99999999999;;;10.6;74.9
67345;BME280;54230;52.402;6.276;2024-01-30T06:40:00;102470.0;;;10.8;75.2
67345;BME280;54230;52.402;6.276;2024-01-30T06:45:00;102470.0;;;10.6;74.3
67345;BME280;54230;52.402;6.276;2024-01-30T06:50:00;102480.0;;;10.5;74.4
67345;BME280;54230;52.402;6.276;2024-01-30T06:55:00;102470.0;;;10.5;74.7
67345;BME280;54230;52.402;6.276;2024-01-30T07:00:00;102470.0;;;10.6;74.5
67345;BME280;54230;52.402;6.276;2024-01-30T07:05:00;102459.99999999999;;;10.6;74.7
67345;BME280;54230;52.402;6.276;2024-01-30T07:10:00;102470.0;;;10.5;74.7
67345;BME280;54230;52.402;6.276;2024-01-30T07:15:00;102450.0;;;10.6;74.9
67345;BME280;54230;52.402;6.276;2024-01-30T07:20:00;102450.0;;;10.7;74.8
67345;BME280;54230;52.402;6.276;2024-01-30T07:25:00;102459.99999999999;;;10.6;75.0
67345;BME280;54230;52.402;6.276;2024-01-30T07:30:00;102470.0;;;10.7;74.9
67345;BME280;54230;52.402;6.276;2024-01-30T07:35:00;102490.00000000001;;;10.7;74.9
67345;BME280;54230;52.402;6.276;2024-01-30T07:40:01;102480.0;;;10.8;74.9
67345;BME280;54230;52.402;6.276;2024-01-30T07:45:00;102480.0;;;10.8;75.1
67345;BME280;54230;52.402;6.276;2024-01-30T07:50:00;102480.0;;;10.9;75.1
67345;BME280;54230;52.402;6.276;2024-01-30T07:55:00;102480.0;;;11.0;75.1
67345;BME280;54230;52.402;6.276;2024-01-30T08:00:00;102490.00000000001;;;11.1;74.9
67345;BME280;54230;52.402;6.276;2024-01-30T08:05:00;102509.99999999999;;;11.1;74.8
67345;BME280;54230;52.402;6.276;2024-01-30T08:10:00;102509.99999999999;;;11.1;74.8
67345;BME280;54230;52.402;6.276;2024-01-30T08:15:00;102509.99999999999;;;11.2;74.8
67345;BME280;54230;52.402;6.276;2024-01-30T08:20:00;102509.99999999999;;;11.3;74.8
67345;BME280;54230;52.402;6.276;2024-01-30T08:25:00;102520.0;;;11.3;74.5
67345;BME280;54230;52.402;6.276;2024-01-30T08:30:00;102509.99999999999;;;11.3;74.5
67345;BME280;54230;52.402;6.276;2024-01-30T08:35:00;102520.0;;;11.4;74.6
67345;BME280;54230;52.402;6.276;2024-01-30T08:40:00;102520.0;;;11.5;74.4
67345;BME280;54230;52.402;6.276;2024-01-30T08:45:00;102509.99999999999;;;11.4;74.4
67345;BME280;54230;52.402;6.276;2024-01-30T08:50:00;102530.0;;;11.4;74.4
67345;BME280;54230;52.402;6.276;2024-01-30T08:55:00;102520.0;;;11.5;74.7
67345;BME280;54230;52.402;6.276;2024-01-30T09:00:00;102520.0;;;11.6;74.5
67345;BME280;54230;52.402;6.276;2024-01-30T09:05:00;102520.0;;;11.8;74.2
67345;BME280;54230;52.402;6.276;2024-01-30T09:10:00;102520.0;;;11.8;74.2
67345;BME280;54230;52.402;6.276;2024-01-30T09:15:00;102530.0;;;12.0;74.1
67345;BME280;54230;52.402;6.276;2024-01-30T09:20:00;102530.0;;;12.1;73.5
67345;BME280;54230;52.402;6.276;2024-01-30T09:25:00;102530.0;;;12.2;73.6
67345;BME280;54230;52.402;6.276;2024-01-30T09:30:00;102540.00000000001;;;12.4;73.5
67345;BME280;54230;52.402;6.276;2024-01-30T09:35:00;102540.00000000001;;;12.5;73.0
67345;BME280;54230;52.402;6.276;2024-01-30T09:40:00;102540.00000000001;;;12.6;72.8
67345;BME280;54230;52.402;6.276;2024-01-30T09:45:01;102530.0;;;12.6;72.9
67345;BME280;54230;52.402;6.276;2024-01-30T09:50:00;102530.0;;;12.7;72.7
67345;BME280;54230;52.402;6.276;2024-01-30T09:55:00;102530.0;;;12.8;72.4
67345;BME280;54230;52.402;6.276;2024-01-30T10:00:00;102530.0;;;12.9;72.3
67345;BME280;54230;52.402;6.276;2024-01-30T10:05:00;102530.0;;;12.9;72.2
67345;BME280;54230;52.402;6.276;2024-01-30T10:10:00;102530.0;;;13.1;72.0
67345;BME280;54230;52.402;6.276;2024-01-30T10:15:00;102530.0;;;13.3;71.8
67345;BME280;54230;52.402;6.276;2024-01-30T10:20:04;102540.00000000001;;;13.4;71.4
67345;BME280;54230;52.402;6.276;2024-01-30T10:25:00;102540.00000000001;;;13.4;71.2
67345;BME280;54230;52.402;6.276;2024-01-30T10:30:00;102540.00000000001;;;13.5;71.2
67345;BME280;54230;52.402;6.276;2024-01-30T10:35:00;102540.00000000001;;;13.7;70.9
67345;BME280;54230;52.402;6.276;2024-01-30T10:40:02;102540.00000000001;;;13.7;70.7
67345;BME280;54230;52.402;6.276;2024-01-30T10:45:05;102550.0;;;13.8;71.2
67345;BME280;54230;52.402;6.276;2024-01-30T10:50:00;102540.00000000001;;;13.8;71.3
67345;BME280;54230;52.402;6.276;2024-01-30T10:55:00;102540.00000000001;;;13.8;71.6
67345;BME280;54230;52.402;6.276;2024-01-30T11:00:02;102550.0;;;13.8;71.9
67345;BME280;54230;52.402;6.276;2024-01-30T11:05:00;102550.0;;;13.9;71.6
67345;BME280;54230;52.402;6.276;2024-01-30T11:10:01;102550.0;;;13.9;71.3
67345;BME280;54230;52.402;6.276;2024-01-30T11:15:02;102559.99999999999;;;13.8;71.1
67345;BME280;54230;52.402;6.276;2024-01-30T11:20:00;102559.99999999999;;;13.8;71.1
67345;BME280;54230;52.402;6.276;2024-01-30T11:25:01;102570.0;;;13.8;71.1
67345;BME280;54230;52.402;6.276;2024-01-30T11:30:01;102550.0;;;13.8;70.8
67345;BME280;54230;52.402;6.276;2024-01-30T11:35:00;102559.99999999999;;;13.9;70.2
67345;BME280;54230;52.402;6.276;2024-01-30T11:40:00;102559.99999999999;;;13.9;70.1
67345;BME280;54230;52.402;6.276;2024-01-30T11:45:00;102550.0;;;14.0;69.7
67345;BME280;54230;52.402;6.276;2024-01-30T11:50:00;102550.0;;;14.0;69.3
67345;BME280;54230;52.402;6.276;2024-01-30T11:55:00;102550.0;;;14.2;68.4
67345;BME280;54230;52.402;6.276;2024-01-30T12:00:00;102540.00000000001;;;14.3;68.1
67345;BME280;54230;52.402;6.276;2024-01-30T12:05:02;102540.00000000001;;;14.4;67.6
67345;BME280;54230;52.402;6.276;2024-01-30T12:10:00;102540.00000000001;;;14.3;67.0
67345;BME280;54230;52.402;6.276;2024-01-30T12:15:00;102530.0;;;14.2;66.1
67345;BME280;54230;52.402;6.276;2024-01-30T12:20:04;102530.0;;;14.1;66.1
67345;BME280;54230;52.402;6.276;2024-01-30T12:25:00;102540.00000000001;;;14.0;66.4
67345;BME280;54230;52.402;6.276;2024-01-30T12:30:00;102550.0;;;14.1;65.8
67345;BME280;54230;52.402;6.276;2024-01-30T12:35:00;102550.0;;;14.1;65.3
67345;BME280;54230;52.402;6.276;2024-01-30T12:40:01;102559.99999999999;;;14.2;64.9
67345;BME280;54230;52.402;6.276;2024-01-30T12:45:01;102570.0;;;14.1;64.7
67345;BME280;54230;52.402;6.276;2024-01-30T12:50:00;102580.0;;;14.2;64.7
67345;BME280;54230;52.402;6.276;2024-01-30T12:55:00;102570.0;;;14.2;64.2
67345;BME280;54230;52.402;6.276;2024-01-30T13:00:00;102580.0;;;14.2;62.7
67345;BME280;54230;52.402;6.276;2024-01-30T13:05:00;102580.0;;;14.0;62.1
67345;BME280;54230;52.402;6.276;2024-01-30T13:10:00;102590.00000000001;;;14.0;61.4
67345;BME280;54230;52.402;6.276;2024-01-30T13:15:00;102590.00000000001;;;13.9;61.1
67345;BME280;54230;52.402;6.276;2024-01-30T13:20:00;102609.99999999999;;;13.8;61.3
67345;BME280;54230;52.402;6.276;2024-01-30T13:25:00;102590.00000000001;;;13.6;61.9
67345;BME280;54230;52.402;6.276;2024-01-30T13:30:00;102590.00000000001;;;13.6;62.3
67345;BME280;54230;52.402;6.276;2024-01-30T13:35:00;102590.00000000001;;;13.5;62.1
67345;BME280;54230;52.402;6.276;2024-01-30T13:40:00;102600.0;;;13.2;62.5
67345;BME280;54230;52.402;6.276;2024-01-30T13:45:00;102609.99999999999;;;13.0;63.4
67345;BME280;54230;52.402;6.276;2024-01-30T13:50:00;102620.0;;;12.9;64.1
67345;BME280;54230;52.402;6.276;2024-01-30T13:55:00;102620.0;;;12.8;64.7
67345;BME280;54230;52.402;6.276;2024-01-30T14:00:00;102630.0;;;12.9;64.3
67345;BME280;54230;52.402;6.276;2024-01-30T14:05:00;102630.0;;;12.9;63.9
67345;BME280;54230;52.402;6.276;2024-01-30T14:10:00;102630.0;;;12.8;63.8
67345;BME280;54230;52.402;6.276;2024-01-30T14:15:00;102630.0;;;12.9;63.6
67345;BME280;54230;52.402;6.276;2024-01-30T14:20:00;102640.00000000001;;;12.9;63.5
67345;BME280;54230;52.402;6.276;2024-01-30T14:25:00;102650.0;;;12.9;63.3
67345;BME280;54230;52.402;6.276;2024-01-30T14:30:00;102650.0;;;12.8;63.5
67345;BME280;54230;52.402;6.276;2024-01-30T14:35:00;102659.99999999999;;;12.7;64.0
67345;BME280;54230;52.402;6.276;2024-01-30T14:40:00;102670.0;;;12.5;64.8
67345;BME280;54230;52.402;6.276;2024-01-30T14:45:00;102670.0;;;12.2;65.8
67345;BME280;54230;52.402;6.276;2024-01-30T14:50:00;102670.0;;;12.2;66.5
67345;BME280;54230;52.402;6.276;2024-01-30T14:55:00;102670.0;;;12.2;67.1
67345;BME280;54230;52.402;6.276;2024-01-30T15:00:00;102670.0;;;12.1;67.4
67345;BME280;54230;52.402;6.276;2024-01-30T15:05:00;102680.0;;;11.9;68.3
67345;BME280;54230;52.402;6.276;2024-01-30T15:10:00;102690.00000000001;;;11.9;69.2
67345;BME280;54230;52.402;6.276;2024-01-30T15:15:00;102690.00000000001;;;11.7;70.3
67345;BME280;54230;52.402;6.276;2024-01-30T15:20:00;102690.00000000001;;;11.6;71.4
67345;BME280;54230;52.402;6.276;2024-01-30T15:25:00;102700.0;;;11.5;72.1
67345;BME280;54230;52.402;6.276;2024-01-30T15:30:00;102700.0;;;11.4;72.9
67345;BME280;54230;52.402;6.276;2024-01-30T15:35:00;102709.99999999999;;;11.3;73.5
67345;BME280;54230;52.402;6.276;2024-01-30T15:40:00;102709.99999999999;;;11.4;74.3
67345;BME280;54230;52.402;6.276;2024-01-30T15:45:00;102730.0;;;11.3;74.5
67345;BME280;54230;52.402;6.276;2024-01-30T15:50:00;102730.0;;;11.3;74.8
67345;BME280;54230;52.402;6.276;2024-01-30T15:55:00;102740.00000000001;;;11.3;74.9
67345;BME280;54230;52.402;6.276;2024-01-30T16:00:00;102740.00000000001;;;11.2;74.7
67345;BME280;54230;52.402;6.276;2024-01-30T16:05:00;102750.0;;;11.1;75.1
67345;BME280;54230;52.402;6.276;2024-01-30T16:10:00;102759.99999999999;;;11.2;75.3
67345;BME280;54230;52.402;6.276;2024-01-30T16:15:01;102759.99999999999;;;11.3;75.6
67345;BME280;54230;52.402;6.276;2024-01-30T16:20:00;102770.0;;;11.3;75.6
67345;BME280;54230;52.402;6.276;2024-01-30T16:25:00;102780.0;;;11.2;76.2
67345;BME280;54230;52.402;6.276;2024-01-30T16:30:00;102780.0;;;11.2;76.9
67345;BME280;54230;52.402;6.276;2024-01-30T16:35:00;102790.00000000001;;;11.0;77.3
67345;BME280;54230;52.402;6.276;2024-01-30T16:40:00;102800.0;;;10.9;78.1
67345;BME280;54230;52.402;6.276;2024-01-30T16:45:00;102800.0;;;10.7;78.7
67345;BME280;54230;52.402;6.276;2024-01-30T16:50:00;102820.0;;;10.8;79.0
67345;BME280;54230;52.402;6.276;2024-01-30T16:55:00;102820.0;;;10.8;79.2
67345;BME280;54230;52.402;6.276;2024-01-30T17:00:00;102830.0;;;10.8;79.4
67345;BME280;54230;52.402;6.276;2024-01-30T17:05:00;102840.00000000001;;;10.9;79.5
67345;BME280;54230;52.402;6.276;2024-01-30T17:10:00;102850.0;;;10.9;79.7
67345;BME280;54230;52.402;6.276;2024-01-30T17:15:00;102859.99999999999;;;10.8;79.8
67345;BME280;54230;52.402;6.276;2024-01-30T17:20:00;102870.0;;;10.7;80.2
67345;BME280;54230;52.402;6.276;2024-01-30T17:25:00;102880.0;;;10.6;80.7
67345;BME280;54230;52.402;6.276;2024-01-30T17:30:00;102880.0;;;10.6;80.8
67345;BME280;54230;52.402;6.276;2024-01-30T17:35:00;102890.00000000001;;;10.5;81.1
67345;BME280;54230;52.402;6.276;2024-01-30T17:40:00;102900.0;;;10.5;81.2
67345;BME280;54230;52.402;6.276;2024-01-30T17:45:00;102909.99999999999;;;10.4;81.3
67345;BME280;54230;52.402;6.276;2024-01-30T17:50:00;102920.0;;;10.5;81.5
67345;BME280;54230;52.402;6.276;2024-01-30T17:55:00;102930.0;;;10.5;81.3
67345;BME280;54230;52.402;6.276;2024-01-30T18:00:00;102940.00000000001;;;10.5;81.4
67345;BME280;54230;52.402;6.276;2024-01-30T18:05:00;102940.00000000001;;;10.4;81.3
67345;BME280;54230;52.402;6.276;2024-01-30T18:10:00;102950.0;;;10.4;81.4
67345;BME280;54230;52.402;6.276;2024-01-30T18:15:00;102959.99999999999;;;10.4;81.3
67345;BME280;54230;52.402;6.276;2024-01-30T18:20:00;102970.0;;;10.3;81.2
67345;BME280;54230;52.402;6.276;2024-01-30T18:25:00;102970.0;;;10.3;81.2
67345;BME280;54230;52.402;6.276;2024-01-30T18:30:00;102990.00000000001;;;10.3;81.1
67345;BME280;54230;52.402;6.276;2024-01-30T18:35:00;102990.00000000001;;;10.2;81.1
67345;BME280;54230;52.402;6.276;2024-01-30T18:40:00;103000.0;;;10.2;81.2
67345;BME280;54230;52.402;6.276;2024-01-30T18:45:00;103009.99999999999;;;10.1;81.2
67345;BME280;54230;52.402;6.276;2024-01-30T18:50:00;103020.0;;;10.1;81.1
67345;BME280;54230;52.402;6.276;2024-01-30T18:55:00;103030.0;;;10.1;80.7
67345;BME280;54230;52.402;6.276;2024-01-30T19:00:00;103040.00000000001;;;10.1;80.4
67345;BME280;54230;52.402;6.276;2024-01-30T19:05:00;103040.00000000001;;;10.0;80.1
67345;BME280;54230;52.402;6.276;2024-01-30T19:10:00;103040.00000000001;;;10.0;80.1
67345;BME280;54230;52.402;6.276;2024-01-30T19:15:00;103050.0;;;10.0;79.9
67345;BME280;54230;52.402;6.276;2024-01-30T19:20:00;103059.99999999999;;;10.0;79.8
67345;BME280;54230;52.402;6.276;2024-01-30T19:25:00;103059.99999999999;;;9.9;79.9
67345;BME280;54230;52.402;6.276;2024-01-30T19:30:00;103070.0;;;10.0;79.9
67345;BME280;54230;52.402;6.276;2024-01-30T19:35:00;103080.0;;;9.9;79.9
67345;BME280;54230;52.402;6.276;2024-01-30T19:40:00;103090.00000000001;;;9.8;80.2
67345;BME280;54230;52.402;6.276;2024-01-30T19:45:00;103100.0;;;9.8;80.5
67345;BME280;54230;52.402;6.276;2024-01-30T19:50:00;103100.0;;;9.7;80.6
67345;BME280;54230;52.402;6.276;2024-01-30T19:55:00;103109.99999999999;;;9.7;80.8
67345;BME280;54230;52.402;6.276;2024-01-30T20:00:00;103120.0;;;9.6;80.9
67345;BME280;54230;52.402;6.276;2024-01-30T20:05:00;103120.0;;;9.7;80.5
67345;BME280;54230;52.402;6.276;2024-01-30T20:10:00;103140.00000000001;;;9.7;80.2
67345;BME280;54230;52.402;6.276;2024-01-30T20:15:00;103150.0;;;9.7;80.0
67345;BME280;54230;52.402;6.276;2024-01-30T20:20:00;103150.0;;;9.7;80.0
67345;BME280;54230;52.402;6.276;2024-01-30T20:25:00;103150.0;;;9.6;80.0
67345;BME280;54230;52.402;6.276;2024-01-30T20:30:00;103159.99999999999;;;9.6;79.9
67345;BME280;54230;52.402;6.276;2024-01-30T20:35:00;103170.0;;;9.6;79.8
67345;BME280;54230;52.402;6.276;2024-01-30T20:40:00;103180.0;;;9.6;79.8
67345;BME280;54230;52.402;6.276;2024-01-30T20:45:01;103190.00000000001;;;9.5;79.9
67345;BME280;54230;52.402;6.276;2024-01-30T20:50:00;103209.99999999999;;;9.4;80.1
67345;BME280;54230;52.402;6.276;2024-01-30T20:55:01;103220.0;;;8.9;80.9
67345;BME280;54230;52.402;6.276;2024-01-30T21:00:00;103209.99999999999;;;8.6;82.0
67345;BME280;54230;52.402;6.276;2024-01-30T21:05:00;103220.0;;;8.5;82.3
67345;BME280;54230;52.402;6.276;2024-01-30T21:10:00;103220.0;;;8.6;82.4
67345;BME280;54230;52.402;6.276;2024-01-30T21:15:00;103220.0;;;8.7;82.2
67345;BME280;54230;52.402;6.276;2024-01-30T21:20:00;103230.0;;;8.9;81.6
67345;BME280;54230;52.402;6.276;2024-01-30T21:25:01;103230.0;;;9.0;81.2
67345;BME280;54230;52.402;6.276;2024-01-30T21:30:00;103230.0;;;8.9;81.3
67345;BME280;54230;52.402;6.276;2024-01-30T21:35:00;103230.0;;;9.0;81.1
67345;BME280;54230;52.402;6.276;2024-01-30T21:40:00;103240.00000000001;;;9.1;81.1
67345;BME280;54230;52.402;6.276;2024-01-30T21:45:00;103240.00000000001;;;9.1;80.9
67345;BME280;54230;52.402;6.276;2024-01-30T21:50:00;103250.0;;;9.1;80.8
67345;BME280;54230;52.402;6.276;2024-01-30T21:55:00;103250.0;;;9.2;80.8
67345;BME280;54230;52.402;6.276;2024-01-30T22:00:00;103270.0;;;8.9;80.9
67345;BME280;54230;52.402;6.276;2024-01-30T22:05:00;103270.0;;;8.7;80.8
67345;BME280;54230;52.402;6.276;2024-01-30T22:10:00;103270.0;;;8.7;80.7
67345;BME280;54230;52.402;6.276;2024-01-30T22:15:00;103270.0;;;8.8;80.4
67345;BME280;54230;52.402;6.276;2024-01-30T22:20:00;103280.0;;;8.8;80.1
67345;BME280;54230;52.402;6.276;2024-01-30T22:25:00;103280.0;;;8.8;79.9
67345;BME280;54230;52.402;6.276;2024-01-30T22:30:00;103280.0;;;8.8;79.8
67345;BME280;54230;52.402;6.276;2024-01-30T22:35:00;103300.0;;;8.8;79.7
67345;BME280;54230;52.402;6.276;2024-01-30T22:40:00;103290.00000000001;;;8.9;79.3
67345;BME280;54230;52.402;6.276;2024-01-30T22:45:00;103300.0;;;8.9;79.2
67345;BME280;54230;52.402;6.276;2024-01-30T22:50:00;103300.0;;;8.7;79.2
67345;BME280;54230;52.402;6.276;2024-01-30T22:55:00;103300.0;;;8.6;79.1
67345;BME280;54230;52.402;6.276;2024-01-30T23:00:00;103300.0;;;8.4;79.2
67345;BME280;54230;52.402;6.276;2024-01-30T23:05:00;103300.0;;;8.2;79.7
67345;BME280;54230;52.402;6.276;2024-01-30T23:10:00;103309.99999999999;;;8.2;79.8
67345;BME280;54230;52.402;6.276;2024-01-30T23:15:00;103309.99999999999;;;8.0;79.7
67345;BME280;54230;52.402;6.276;2024-01-30T23:20:00;103320.0;;;7.8;79.9
67345;BME280;54230;52.402;6.276;2024-01-30T23:25:00;103320.0;;;7.7;80.2
67345;BME280;54230;52.402;6.276;2024-01-30T23:30:01;103320.0;;;7.6;80.4
67345;BME280;54230;52.402;6.276;2024-01-30T23:35:00;103330.0;;;7.6;80.6
67345;BME280;54230;52.402;6.276;2024-01-30T23:40:00;103330.0;;;7.6;80.6
67345;BME280;54230;52.402;6.276;2024-01-30T23:45:00;103340.00000000001;;;7.5;80.6
67345;BME280;54230;52.402;6.276;2024-01-30T23:50:00;103350.0;;;7.4;80.6
67345;BME280;54230;52.402;6.276;2024-01-30T23:55:00;103350.0;;;7.4;80.9
